Time,TemperatureF,DewpointF,PressureIn,WindDirection,WindDirectionDegrees,WindSpeedMPH,WindSpeedGustMPH,Humidity,HourlyPrecipIn,Conditions,Clouds,dailyrainin,SoftwareType,DateUTC
2013-06-10 00:02:00,69.0,68.0,-100.00,NE,55,2.0,4.0,96,-99.99,,,-99.99,,2013-06-10 05:02:00,
2013-06-10 00:12:00,69.0,68.0,-100.00,NE,55,2.0,4.0,96,-99.99,,,-99.99,,2013-06-10 05:12:00,
2013-06-10 00:22:00,69.0,68.0,-100.00,NE,55,2.0,4.0,96,-99.99,,,-99.99,,2013-06-10 05:22:00,
2013-06-10 00:32:00,69.0,68.0,-100.00,NE,55,2.0,4.0,96,-99.99,,,-99.99,,2013-06-10 05:32:00,
2013-06-10 01:02:00,68.0,67.0,-100.00,ENE,60,1.0,4.0,96,-99.99,,,-99.99,,2013-06-10 06:02:00,
2013-06-10 01:12:00,68.0,67.0,-100.00,ENE,60,1.0,4.0,96,-99.99,,,-99.99,,2013-06-10 06:12:00,
2013-06-10 01:22:00,68.0,67.0,-100.00,ENE,60,1.0,4.0,96,-99.99,,,-99.99,,2013-06-10 06:22:00,
2013-06-10 01:32:00,68.0,67.0,-100.00,ENE,60,1.0,4.0,96,-99.99,,,-99.99,,2013-06-10 06:32:00,
2013-06-10 02:02:00,68.0,67.0,-100.00,ENE,65,2.0,6.0,96,-99.99,,,-99.99,,2013-06-10 07:02:00,
2013-06-10 02:12:00,68.0,67.0,-100.00,ENE,65,2.0,6.0,96,-99.99,,,-99.99,,2013-06-10 07:12:00,
2013-06-10 02:22:00,68.0,67.0,-100.00,ENE,65,2.0,6.0,96,-99.99,,,-99.99,,2013-06-10 07:22:00,
2013-06-10 02:32:00,68.0,67.0,-100.00,ENE,65,2.0,6.0,96,-99.99,,,-99.99,,2013-06-10 07:32:00,
2013-06-10 03:02:00,67.0,66.0,-100.00,ENE,65,6.0,7.0,96,-99.99,,,-99.99,,2013-06-10 08:02:00,
2013-06-10 03:12:00,67.0,66.0,-100.00,ENE,65,6.0,7.0,96,-99.99,,,-99.99,,2013-06-10 08:12:00,
2013-06-10 03:22:00,67.0,66.0,-100.00,ENE,65,6.0,7.0,96,-99.99,,,-99.99,,2013-06-10 08:22:00,
2013-06-10 04:02:00,67.0,66.0,-100.00,NE,50,2.0,6.0,96,-99.99,,,-99.99,,2013-06-10 09:02:00,
2013-06-10 04:12:00,67.0,66.0,-100.00,NE,50,2.0,6.0,96,-99.99,,,-99.99,,2013-06-10 09:12:00,
2013-06-10 04:22:00,67.0,66.0,-100.00,NE,50,2.0,6.0,96,-99.99,,,-99.99,,2013-06-10 09:22:00,
2013-06-10 06:03:00,64.0,63.0,-100.00,NW,325,1.0,3.0,96,-99.99,,,-99.99,,2013-06-10 11:03:00,
2013-06-10 06:12:00,64.0,63.0,-100.00,NW,325,1.0,3.0,96,-99.99,,,-99.99,,2013-06-10 11:12:00,
2013-06-10 06:22:00,64.0,63.0,-100.00,NW,325,1.0,3.0,96,-99.99,,,-99.99,,2013-06-10 11:22:00,
2013-06-10 07:02:00,66.0,64.0,-100.00,NE,50,4.0,6.0,96,-99.99,,,-99.99,,2013-06-10 12:02:00,
2013-06-10 08:02:00,68.0,67.0,-100.00,East,80,3.0,6.0,96,-99.99,,,-99.99,,2013-06-10 13:02:00,
2013-06-10 09:02:00,71.0,67.0,-100.00,East,85,6.0,7.0,86,-99.99,,,-99.99,,2013-06-10 14:02:00,
2013-06-10 09:32:00,71.0,67.0,-100.00,East,85,6.0,7.0,86,-99.99,,,-99.99,,2013-06-10 14:32:00,
2013-06-10 09:52:00,75.0,66.0,-100.00,East,80,1.0,4.0,72,-99.99,,,-99.99,,2013-06-10 14:52:00,
2013-06-10 10:53:00,78.0,64.0,-100.00,West,275,4.0,7.0,63,-99.99,,,-99.99,,2013-06-10 15:53:00,